createdAt,value
2018-09-06T04:05:01.900Z,101136.98
2018-09-06T04:07:31.676Z,101141.05
2018-09-06T04:10:01.735Z,101140.58
2018-09-06T04:12:31.155Z,101134.12
2018-09-06T04:15:00.204Z,101136.47
2018-09-06T04:17:29.432Z,101132.42
2018-09-06T04:19:59.021Z,101129.16
2018-09-06T04:22:28.292Z,101122.95
2018-09-06T04:24:58.413Z,101127.97
2018-09-06T04:27:27.707Z,101129.14
2018-09-06T04:29:56.620Z,101125.72
2018-09-06T04:32:26.045Z,101124.18
2018-09-06T04:34:55.417Z,101123.77
2018-09-06T04:37:24.465Z,101136.62
2018-09-06T04:39:53.603Z,101135.41
2018-09-06T04:42:22.548Z,101132.83
2018-09-06T04:44:51.597Z,101125.00
2018-09-06T04:47:20.672Z,101130.22
2018-09-06T04:49:51.487Z,101129.30
2018-09-06T04:52:20.481Z,101129.16
2018-09-06T04:54:50.940Z,101133.45
2018-09-06T04:57:20.340Z,101133.61
2018-09-06T04:59:49.776Z,101126.07
2018-09-06T05:02:18.744Z,101126.86
2018-09-06T05:04:47.630Z,101127.33
2018-09-06T05:07:16.530Z,101130.35
2018-09-06T05:09:45.740Z,101131.86
2018-09-06T05:12:14.920Z,101125.28
2018-09-06T05:14:44.020Z,101133.13
2018-09-06T05:17:13.344Z,101135.23
2018-09-06T05:19:42.411Z,101129.38
2018-09-06T05:22:11.353Z,101133.38
2018-09-06T05:24:40.194Z,101140.39
2018-09-06T05:27:09.040Z,101143.83
2018-09-06T05:29:38.043Z,101142.02
2018-09-06T05:32:06.993Z,101144.79
2018-09-06T05:34:36.471Z,101134.19
2018-09-06T05:37:06.367Z,101142.02
2018-09-06T05:39:35.336Z,101137.64
2018-09-06T05:42:04.476Z,101139.59
2018-09-06T05:44:33.161Z,101139.02
2018-09-06T05:47:02.009Z,101137.30
2018-09-06T05:49:30.913Z,101133.05
2018-09-06T05:52:00.217Z,101132.98
2018-09-06T05:54:29.999Z,101138.28
2018-09-06T05:56:59.244Z,101132.48
2018-09-06T05:59:28.139Z,101131.75
2018-09-06T06:01:57.035Z,101126.28
2018-09-06T06:04:26.095Z,101130.06
2018-09-06T06:06:55.011Z,101125.25
2018-09-06T06:09:23.912Z,101124.81
2018-09-06T06:11:53.030Z,101122.44
2018-09-06T06:14:21.888Z,101124.66
2018-09-06T06:16:51.357Z,101121.21
2018-09-06T06:19:20.908Z,101119.97
2018-09-06T06:21:50.028Z,101119.05
2018-09-06T06:24:18.885Z,101118.55
2018-09-06T06:26:48.031Z,101116.42
2018-09-06T06:29:17.044Z,101118.77
2018-09-06T06:31:46.332Z,101110.37
2018-09-06T06:34:15.427Z,101108.22
2018-09-06T06:36:44.213Z,101111.29
2018-09-06T06:39:14.089Z,101110.70
2018-09-06T06:41:43.064Z,101104.23
2018-09-06T06:44:12.223Z,101105.73
2018-09-06T06:46:41.088Z,101094.94
2018-09-06T06:49:09.940Z,101104.30
2018-09-06T06:51:39.046Z,101107.06
2018-09-06T06:54:07.906Z,101104.91
2018-09-06T06:56:36.771Z,101102.27
2018-09-06T06:59:05.709Z,101105.45
2018-09-06T07:01:34.860Z,101107.29
2018-09-06T07:04:03.664Z,101108.23
2018-09-06T07:06:34.107Z,101104.91
2018-09-06T07:09:04.283Z,101103.81
2018-09-06T07:11:34.053Z,101111.50
2018-09-06T07:14:03.127Z,101106.14
2018-09-06T07:16:31.954Z,101102.09
2018-09-06T07:19:00.735Z,101101.14
2018-09-06T07:21:29.811Z,101098.86
2018-09-06T07:23:58.803Z,101098.03
2018-09-06T07:26:27.744Z,101096.27
2018-09-06T07:28:57.411Z,101098.81
2018-09-06T07:31:26.942Z,101093.95
2018-09-06T07:33:56.119Z,101094.91
2018-09-06T07:36:26.246Z,101098.52
2018-09-06T07:38:55.186Z,101102.13
2018-09-06T07:41:24.481Z,101099.05
2018-09-06T07:43:53.127Z,101088.34
2018-09-06T07:46:21.935Z,101100.22
2018-09-06T07:48:50.972Z,101095.50
2018-09-06T07:51:19.988Z,101095.41
2018-09-06T07:53:48.753Z,101093.48
2018-09-06T07:56:17.574Z,101094.66
2018-09-06T07:58:46.447Z,101102.63
2018-09-06T08:01:15.333Z,101104.45
2018-09-06T08:03:44.737Z,101093.12
2018-09-06T08:06:13.742Z,101094.05
2018-09-06T08:08:42.899Z,101095.56
2018-09-06T08:11:11.762Z,101099.98
2018-09-06T08:13:40.528Z,101088.52
2018-09-06T08:16:09.311Z,101096.16
2018-09-06T08:18:38.399Z,101093.27
2018-09-06T08:21:07.268Z,101088.65
2018-09-06T08:23:36.105Z,101088.51
2018-09-06T08:26:05.188Z,101089.22
2018-09-06T08:28:34.168Z,101086.39
2018-09-06T08:31:04.858Z,101084.31
2018-09-06T08:33:34.873Z,101079.91
2018-09-06T08:36:04.133Z,101077.10
2018-09-06T08:38:32.972Z,101092.30
2018-09-06T08:41:01.896Z,101082.61
2018-09-06T08:43:30.852Z,101082.67
2018-09-06T08:46:00.021Z,101082.65
2018-09-06T08:48:29.186Z,101082.98
2018-09-06T08:50:58.254Z,101077.80
2018-09-06T08:53:27.153Z,101074.11
2018-09-06T08:55:56.047Z,101080.36
2018-09-06T08:58:25.190Z,101073.30
2018-09-06T09:00:59.533Z,101071.02
2018-09-06T09:03:28.457Z,101071.27
2018-09-06T09:05:57.600Z,101069.16
2018-09-06T09:08:32.881Z,101065.98
2018-09-06T09:11:02.128Z,101061.20
2018-09-06T09:13:31.206Z,101055.36
2018-09-06T09:16:00.104Z,101051.47
2018-09-06T09:18:29.209Z,101047.23
2018-09-06T09:20:58.249Z,101044.09
2018-09-06T09:23:27.200Z,101043.36
2018-09-06T09:25:56.383Z,101036.52
2018-09-06T09:28:25.108Z,101036.16
2018-09-06T09:30:54.091Z,101034.07
2018-09-06T09:33:23.151Z,101031.17
2018-09-06T09:35:52.128Z,101034.39
2018-09-06T09:38:20.835Z,101032.03
2018-09-06T09:40:49.564Z,101029.84
2018-09-06T09:43:18.547Z,101021.91
2018-09-06T09:45:47.425Z,101019.20
2018-09-06T09:48:16.490Z,101023.31
2018-09-06T09:53:16.091Z,101015.00
2018-09-06T09:55:44.992Z,101018.53
2018-09-06T09:58:13.885Z,101005.68
2018-09-06T10:00:43.623Z,101009.94
2018-09-06T10:03:17.839Z,101005.50
2018-09-06T10:05:52.249Z,101005.72
2018-09-06T10:08:26.446Z,100995.59
2018-09-06T10:10:55.766Z,100997.23
2018-09-06T10:13:24.860Z,100991.67
2018-09-06T10:15:54.048Z,100993.79
2018-09-06T10:18:22.968Z,100996.22
2018-09-06T10:20:52.209Z,100989.05
2018-09-06T10:23:21.149Z,100983.05
2018-09-06T10:25:50.138Z,100984.94
2018-09-06T10:28:19.304Z,100981.69
2018-09-06T10:30:48.323Z,100978.33
2018-09-06T10:33:17.430Z,100976.86
2018-09-06T10:35:46.726Z,100971.42
2018-09-06T10:38:15.511Z,100971.11
2018-09-06T10:40:44.338Z,100964.77
2018-09-06T10:43:13.148Z,100958.49
2018-09-06T10:45:42.272Z,100963.91
2018-09-06T10:48:11.141Z,100956.30
2018-09-06T10:50:40.029Z,100964.92
2018-09-06T10:53:15.509Z,100953.72
2018-09-06T10:55:44.477Z,100952.72
2018-09-06T10:58:13.354Z,100953.89
2018-09-06T11:00:42.504Z,100947.71
2018-09-06T11:03:11.560Z,100944.38
2018-09-06T11:05:41.098Z,100945.09
2018-09-06T11:08:10.044Z,100943.23
2018-09-06T11:10:39.087Z,100939.55
2018-09-06T11:13:08.075Z,100936.39
2018-09-06T11:15:37.073Z,100935.27
2018-09-06T11:18:06.254Z,100931.28
2018-09-06T11:20:35.099Z,100923.31
2018-09-06T11:23:04.346Z,100923.05
2018-09-06T11:25:33.238Z,100923.92
2018-09-06T11:28:02.101Z,100924.98
2018-09-06T11:30:32.857Z,100927.94
2018-09-06T11:33:01.922Z,100925.37
2018-09-06T11:35:30.937Z,100923.52
2018-09-06T11:38:00.216Z,100915.16
2018-09-06T11:40:29.058Z,100911.06
2018-09-06T11:42:58.132Z,100911.33
2018-09-06T11:45:27.184Z,100906.79
2018-09-06T11:47:56.614Z,100902.09
2018-09-06T11:50:25.632Z,100895.95
2018-09-06T11:52:54.827Z,100890.22
2018-09-06T11:55:23.600Z,100887.94
2018-09-06T11:57:53.090Z,100891.20
2018-09-06T12:00:22.695Z,100895.90
2018-09-06T12:02:51.827Z,100884.11
2018-09-06T12:05:20.919Z,100883.28
2018-09-06T12:07:50.039Z,100881.02
2018-09-06T12:10:19.068Z,100877.33
2018-09-06T12:12:48.008Z,100874.09
2018-09-06T12:15:17.300Z,100874.42
2018-09-06T12:17:46.403Z,100878.91
2018-09-06T12:20:15.286Z,100872.44
2018-09-06T12:22:44.176Z,100875.92
2018-09-06T12:25:13.045Z,100869.45
2018-09-06T12:27:42.809Z,100872.19
2018-09-06T12:30:11.729Z,100869.33
2018-09-06T12:32:42.814Z,100866.53
2018-09-06T12:35:12.268Z,100866.59
2018-09-06T12:37:41.199Z,100857.23
2018-09-06T12:40:10.132Z,100860.83
2018-09-06T12:42:38.956Z,100859.59
2018-09-06T12:45:08.083Z,100851.87
2018-09-06T12:47:36.815Z,100850.30
2018-09-06T12:50:05.871Z,100851.05
2018-09-06T12:52:34.683Z,100852.16
2018-09-06T12:55:03.471Z,100843.40
2018-09-06T12:57:32.324Z,100836.53
2018-09-06T13:00:01.635Z,100833.47
2018-09-06T13:02:36.389Z,100837.00
2018-09-06T13:05:05.913Z,100839.04
2018-09-06T13:07:34.752Z,100839.84
2018-09-06T13:10:03.548Z,100820.93
2018-09-06T13:12:32.428Z,100819.98
2018-09-06T13:15:01.535Z,100828.31
2018-09-06T13:17:30.571Z,100812.68
2018-09-06T13:19:59.521Z,100812.03
2018-09-06T13:22:28.694Z,100811.13
2018-09-06T13:24:57.763Z,100817.11
2018-09-06T13:27:27.021Z,100809.11
2018-09-06T13:29:56.721Z,100803.38
2018-09-06T13:32:25.844Z,100803.52
2018-09-06T13:34:54.911Z,100807.34
2018-09-06T13:37:23.774Z,100804.75
2018-09-06T13:39:52.786Z,100796.75
2018-09-06T13:42:21.993Z,100797.20
2018-09-06T13:44:50.873Z,100803.94
2018-09-06T13:47:19.792Z,100800.09
2018-09-06T13:49:48.937Z,100797.48
2018-09-06T13:52:17.826Z,100797.61
2018-09-06T13:54:46.612Z,100788.08
2018-09-06T13:57:15.808Z,100788.87
2018-09-06T13:59:44.838Z,100784.23
2018-09-06T14:02:14.143Z,100779.00
2018-09-06T14:04:43.034Z,100779.04
2018-09-06T14:07:13.563Z,100771.98
2018-09-06T14:09:42.431Z,100768.59
2018-09-06T14:12:11.692Z,100763.51
2018-09-06T14:14:40.850Z,100760.97
2018-09-06T14:17:09.896Z,100753.68
2018-09-06T14:19:38.838Z,100745.53
2018-09-06T14:22:07.926Z,100742.70
2018-09-06T14:24:36.823Z,100733.66
2018-09-06T14:27:05.941Z,100733.84
2018-09-06T14:29:35.023Z,100733.28
2018-09-06T14:32:04.167Z,100735.06
2018-09-06T14:34:34.021Z,100728.42
2018-09-06T14:37:03.097Z,100725.29
2018-09-06T14:39:32.013Z,100727.47
2018-09-06T14:42:01.510Z,100721.39
2018-09-06T14:44:30.815Z,100726.16
2018-09-06T14:46:59.697Z,100723.05
2018-09-06T14:49:29.700Z,100726.16
2018-09-06T14:51:59.082Z,100714.84
2018-09-06T14:54:27.950Z,100721.13
2018-09-06T14:56:57.100Z,100711.16
2018-09-06T14:59:26.202Z,100709.77
2018-09-06T15:01:55.596Z,100711.84
2018-09-06T15:04:24.294Z,100711.80
2018-09-06T15:06:53.219Z,100706.03
2018-09-06T15:09:22.176Z,100708.11
2018-09-06T15:11:51.154Z,100700.77
2018-09-06T15:14:20.167Z,100697.36
2018-09-06T15:16:50.272Z,100695.72
2018-09-06T15:19:19.432Z,100694.48
2018-09-06T15:21:48.424Z,100685.69
2018-09-06T15:24:17.272Z,100682.88
2018-09-06T15:26:46.577Z,100680.14
2018-09-06T15:29:16.141Z,100670.05
2018-09-06T15:31:45.253Z,100672.66
2018-09-06T15:34:13.999Z,100670.75
2018-09-06T15:36:42.899Z,100663.42
2018-09-06T15:39:11.936Z,100659.65
2018-09-06T15:41:41.619Z,100660.31
2018-09-06T15:44:10.741Z,100654.90
2018-09-06T15:46:40.043Z,100652.73
2018-09-06T15:49:09.280Z,100653.71
2018-09-06T15:51:38.836Z,100655.75
2018-09-06T15:54:08.061Z,100645.89
2018-09-06T15:56:36.800Z,100644.16
2018-09-06T15:59:06.549Z,100648.25
2018-09-06T16:01:37.020Z,100648.55
2018-09-06T16:04:06.898Z,100648.09
2018-09-06T16:06:35.770Z,100649.84
2018-09-06T16:09:05.447Z,100652.64
2018-09-06T16:11:34.465Z,100656.89
2018-09-06T16:14:03.684Z,100648.88
2018-09-06T16:16:33.045Z,100651.98
2018-09-06T16:19:02.482Z,100649.83
2018-09-06T16:21:31.264Z,100652.52
2018-09-06T16:24:00.662Z,100649.12
2018-09-06T16:26:29.767Z,100656.19
2018-09-06T16:28:58.653Z,100656.91
2018-09-06T16:31:27.494Z,100658.95
2018-09-06T16:33:56.592Z,100657.55
2018-09-06T16:36:25.528Z,100656.71
2018-09-06T16:38:54.625Z,100651.16
2018-09-06T16:41:23.726Z,100652.71
2018-09-06T16:43:52.823Z,100660.70
2018-09-06T16:46:22.296Z,100651.43
2018-09-06T16:48:52.240Z,100659.16
2018-09-06T16:51:21.377Z,100654.34
2018-09-06T16:53:50.186Z,100661.34
2018-09-06T16:56:20.144Z,100660.97
2018-09-06T16:58:50.220Z,100662.55
2018-09-06T17:01:22.172Z,100651.94
2018-09-06T17:03:51.994Z,100656.91
2018-09-06T17:06:21.502Z,100660.51
2018-09-06T17:08:50.528Z,100652.93
2018-09-06T17:11:20.476Z,100655.17
2018-09-06T17:13:49.265Z,100648.06
2018-09-06T17:16:18.552Z,100648.12
2018-09-06T17:18:47.838Z,100643.84
2018-09-06T17:21:16.935Z,100645.19
2018-09-06T17:23:45.778Z,100648.53
2018-09-06T17:26:15.192Z,100652.59
2018-09-06T17:28:45.449Z,100656.94
2018-09-06T17:31:14.533Z,100652.19
2018-09-06T17:33:50.363Z,100653.58
2018-09-06T17:36:19.452Z,100654.42
2018-09-06T17:38:48.465Z,100652.58
2018-09-06T17:41:17.758Z,100654.11
2018-09-06T17:43:47.292Z,100657.22
2018-09-06T17:46:16.175Z,100655.98
2018-09-06T17:48:45.458Z,100663.02
2018-09-06T17:51:14.423Z,100657.89
2018-09-06T17:53:43.211Z,100654.98
2018-09-06T17:56:12.659Z,100662.61
2018-09-06T17:58:41.861Z,100661.44
2018-09-06T18:01:19.996Z,100661.97
2018-09-06T18:03:49.456Z,100660.72
2018-09-06T18:06:19.598Z,100653.06
2018-09-06T18:08:49.305Z,100658.88
2018-09-06T18:11:18.763Z,100659.55
2018-09-06T18:13:47.996Z,100665.13
2018-09-06T18:16:17.205Z,100668.05
2018-09-06T18:18:46.049Z,100671.14
2018-09-06T18:21:15.569Z,100666.38
2018-09-06T18:23:44.512Z,100675.68
2018-09-06T18:26:13.726Z,100669.16
2018-09-06T18:28:42.876Z,100674.73
2018-09-06T18:31:11.979Z,100675.17
2018-09-06T18:33:42.199Z,100676.80
2018-09-06T18:36:11.196Z,100681.63
2018-09-06T18:38:40.662Z,100675.62
2018-09-06T18:41:10.207Z,100678.02
2018-09-06T18:43:39.084Z,100681.55
2018-09-06T18:46:08.602Z,100683.83
2018-09-06T18:48:37.487Z,100683.94
2018-09-06T18:51:06.432Z,100681.00
2018-09-06T18:53:35.479Z,100679.78
2018-09-06T18:56:05.922Z,100682.84
2018-09-06T18:58:35.161Z,100680.39
2018-09-06T19:01:04.673Z,100679.12
2018-09-06T19:03:33.487Z,100675.31
2018-09-06T19:06:02.392Z,100679.14
2018-09-06T19:08:33.278Z,100672.41
2018-09-06T19:11:02.267Z,100677.98
2018-09-06T19:13:31.317Z,100671.05
2018-09-06T19:16:07.050Z,100670.59
2018-09-06T19:18:37.289Z,100677.44
2018-09-06T19:22:05.362Z,100673.92
2018-09-06T19:24:34.643Z,100601.76
2018-09-06T19:27:03.971Z,100669.98
2018-09-06T19:29:34.280Z,100670.37
2018-09-06T19:32:03.415Z,100674.44
2018-09-06T19:34:32.481Z,100672.38
2018-09-06T19:43:49.745Z,100670.45
2018-09-06T19:46:18.836Z,100669.80
2018-09-06T19:48:47.949Z,100657.61
2018-09-06T19:51:17.751Z,100661.33
2018-09-06T19:53:47.140Z,100660.66
2018-09-06T19:56:16.656Z,100655.33
2018-09-06T19:58:47.702Z,100657.80
2018-09-06T20:01:22.086Z,100653.61
2018-09-06T20:03:51.589Z,100653.53
2018-09-06T20:06:20.288Z,100653.33
2018-09-06T20:08:49.496Z,100653.44
2018-09-06T20:11:18.603Z,100657.84
2018-09-06T20:13:48.521Z,100655.17
2018-09-06T20:16:17.789Z,100652.45
2018-09-06T20:18:47.028Z,100650.61
2018-09-06T20:21:16.209Z,100655.51
2018-09-06T20:23:45.460Z,100652.02
2018-09-06T20:26:15.232Z,100650.77
2018-09-06T20:28:44.523Z,100654.23
2018-09-06T20:31:13.682Z,100652.84
2018-09-06T20:33:42.879Z,100650.55
2018-09-06T20:36:12.144Z,100651.70
2018-09-06T20:38:41.743Z,100647.09
2018-09-06T20:41:11.028Z,100650.63
2018-09-06T20:43:40.389Z,100653.39
2018-09-06T20:46:09.179Z,100652.11
2018-09-06T20:48:38.312Z,100647.45
2018-09-06T20:51:07.406Z,100645.06
2018-09-06T20:53:36.297Z,100643.22
2018-09-06T20:56:05.640Z,100646.04
2018-09-06T20:58:34.888Z,100647.20
2018-09-06T21:01:04.177Z,100646.72
2018-09-06T21:03:33.667Z,100647.10
2018-09-06T21:08:38.798Z,100645.91
2018-09-06T21:11:07.639Z,100643.94
2018-09-06T21:13:36.432Z,100648.00
2018-09-06T21:16:05.487Z,100634.45
2018-09-06T21:18:34.913Z,100637.00
2018-09-06T21:21:03.708Z,100636.03
2018-09-06T21:23:32.851Z,100637.80
2018-09-06T21:26:01.997Z,100635.11
2018-09-06T21:28:30.973Z,100636.16
2018-09-06T21:30:59.860Z,100624.72
2018-09-06T21:33:29.188Z,100631.10
2018-09-06T21:35:58.455Z,100626.92
2018-09-06T21:38:27.387Z,100634.45
2018-09-06T21:40:56.309Z,100628.89
2018-09-06T21:43:26.304Z,100626.92
2018-09-06T21:45:55.494Z,100628.08
2018-09-06T21:48:24.360Z,100623.09
2018-09-06T21:50:53.710Z,100626.69
2018-09-06T21:53:22.780Z,100623.67
2018-09-06T21:55:51.980Z,100621.03
2018-09-06T21:58:21.085Z,100620.09
2018-09-06T22:00:50.141Z,100614.53
2018-09-06T22:03:24.383Z,100609.45
2018-09-06T22:05:53.647Z,100601.50
2018-09-06T22:08:24.213Z,100602.17
2018-09-06T22:10:53.305Z,100601.27
2018-09-06T22:13:22.194Z,100605.42
2018-09-06T22:15:51.500Z,100603.48
2018-09-06T22:18:21.956Z,100602.19
2018-09-06T22:20:51.118Z,100599.07
2018-09-06T22:23:20.226Z,100598.97
2018-09-06T22:25:49.305Z,100597.24
2018-09-06T22:28:18.391Z,100602.77
2018-09-06T22:30:47.245Z,100600.33
2018-09-06T22:33:16.088Z,100591.90
2018-09-06T22:35:45.194Z,100592.81
2018-09-06T22:38:14.168Z,100583.57
2018-09-06T22:40:43.038Z,100586.69
2018-09-06T22:43:11.898Z,100584.14
2018-09-06T22:45:40.880Z,100582.66
2018-09-06T22:48:09.741Z,100589.13
2018-09-06T22:50:38.835Z,100580.22
2018-09-06T22:53:07.782Z,100582.52
2018-09-06T22:55:36.781Z,100577.34
2018-09-06T22:58:05.713Z,100578.70
2018-09-06T23:00:34.816Z,100573.75
2018-09-06T23:03:08.756Z,100572.22
2018-09-06T23:05:37.692Z,100572.36
2018-09-06T23:08:06.473Z,100572.36
2018-09-06T23:10:35.302Z,100570.62
2018-09-06T23:13:04.067Z,100572.59
2018-09-06T23:15:33.029Z,100565.89
2018-09-06T23:18:01.808Z,100562.42
2018-09-06T23:20:30.712Z,100555.93
2018-09-06T23:22:59.656Z,100558.13
2018-09-06T23:25:28.956Z,100560.44
2018-09-06T23:27:58.032Z,100552.36
2018-09-06T23:30:27.129Z,100550.39
2018-09-06T23:32:56.639Z,100550.27
2018-09-06T23:35:25.729Z,100554.09
2018-09-06T23:37:54.586Z,100541.25
2018-09-06T23:40:23.710Z,100542.75
2018-09-06T23:42:52.793Z,100536.38
2018-09-06T23:45:22.113Z,100538.59
2018-09-06T23:47:50.953Z,100534.06
2018-09-06T23:50:20.097Z,100525.74
2018-09-06T23:52:49.001Z,100528.18
2018-09-06T23:55:17.913Z,100524.36
2018-09-06T23:57:46.972Z,100530.02
